Time;durP1;ratioP1;P1;durP2;ratioP2;P2;SDS_P1;SDS_P2;PMS_P1;PMS_P2;Temp;Humidity;BMP_temperature;BMP_pressure;BME280_temperature;BME280_humidity;BME280_pressure;Samples;Min_cycle;Max_cycle;Signal;HPM_P1;HPM_P2
2021/05/01 00:02:10;;;;;;;11.13;7.55;;;;;;;11.39;83.21;98858.19;4985027;28;20498;-65
2021/05/01 00:04:36;;;;;;;10.90;7.57;;;;;;;11.42;83.18;98852.72;4967386;28;20078;-65
2021/05/01 00:07:02;;;;;;;12.32;7.78;;;;;;;11.58;82.65;98851.22;4988275;22;20092;-71
2021/05/01 00:09:28;;;;;;;12.25;7.80;;;;;;;11.60;81.90;98860.91;5064751;28;20072;-67
2021/05/01 00:11:56;;;;;;;11.68;8.00;;;;;;;11.33;83.07;98863.69;5050616;28;20048;-69
2021/05/01 00:14:27;;;;;;;15.05;8.20;;;;;;;11.11;83.20;98849.50;5068962;28;20047;-65
2021/05/01 00:16:56;;;;;;;13.40;8.70;;;;;;;11.19;83.89;98863.38;5068730;28;20071;-63
2021/05/01 00:19:22;;;;;;;17.20;8.73;;;;;;;11.19;83.85;98868.66;5068704;28;20071;-66
2021/05/01 00:21:49;;;;;;;15.45;8.65;;;;;;;11.23;84.21;98876.44;5050548;28;20057;-65
2021/05/01 00:24:15;;;;;;;15.85;8.85;;;;;;;11.26;83.47;98878.09;5051173;28;20090;-65
2021/05/01 00:26:41;;;;;;;13.15;8.30;;;;;;;11.23;83.42;98870.28;5069366;28;20407;-67
2021/05/01 00:29:12;;;;;;;17.67;9.55;;;;;;;11.12;84.56;98880.41;5066931;28;20459;-67
2021/05/01 00:31:38;;;;;;;12.43;9.10;;;;;;;11.30;83.68;98871.78;5051696;28;20041;-66
2021/05/01 00:34:24;;;;;;;13.93;8.52;;;;;;;11.45;82.62;98865.88;5025101;28;20073;-67
2021/05/01 00:36:51;;;;;;;16.85;9.23;;;;;;;11.37;83.20;98873.28;4994314;28;20109;-66
2021/05/01 00:39:17;;;;;;;16.50;9.55;;;;;;;11.30;83.05;98880.59;5026325;28;20045;-66
2021/05/01 00:41:45;;;;;;;16.30;9.85;;;;;;;11.30;82.85;98877.94;5009771;28;20041;-67
2021/05/01 00:45:39;;;;;;;16.58;9.68;;;;;;;11.32;83.18;98883.22;4965696;28;20419;-67
2021/05/01 01:13:16;;;;;;;12.52;8.57;;;;;;;11.66;80.67;98896.97;4892978;29;20067;-65
2021/05/01 01:15:42;;;;;;;17.38;9.43;;;;;;;11.28;82.07;98897.50;4886325;29;20057;-64
2021/05/01 01:18:08;;;;;;;17.08;9.48;;;;;;;11.10;82.25;98895.50;4877168;29;20056;-65
2021/05/01 01:20:34;;;;;;;14.82;9.52;;;;;;;10.82;82.46;98884.16;4889926;29;20125;-64
2021/05/01 01:23:00;;;;;;;17.23;9.05;;;;;;;10.79;81.86;98885.13;4862517;29;20060;-64
2021/05/01 01:27:51;;;;;;;15.43;9.18;;;;;;;10.54;81.82;98884.25;4872879;29;20509;-73
2021/05/01 01:30:24;;;;;;;9.73;7.13;;;;;;;10.67;79.81;98905.88;4872987;29;20136;-64
2021/05/01 01:32:50;;;;;;;12.07;7.78;;;;;;;10.66;78.24;98899.72;4890544;29;20528;-66
2021/05/01 01:35:17;;;;;;;10.55;7.07;;;;;;;10.75;77.16;98902.06;4954060;28;20050;-70
2021/05/01 01:37:45;;;;;;;9.63;7.35;;;;;;;10.59;76.14;98879.66;4951291;28;20047;-64
2021/05/01 01:40:21;;;;;;;7.78;6.10;;;;;;;10.63;76.08;98906.91;4952340;28;20498;-64
2021/05/01 01:42:47;;;;;;;11.60;6.70;;;;;;;10.60;75.26;98909.69;4955686;28;20522;-70
2021/05/01 01:45:16;;;;;;;8.57;6.75;;;;;;;10.58;75.38;98919.47;5028459;28;20111;-65
2021/05/01 01:47:43;;;;;;;9.18;7.20;;;;;;;10.47;75.47;98913.63;5011839;28;20079;-64
2021/05/01 01:50:13;;;;;;;10.60;7.13;;;;;;;10.46;75.68;98927.81;5027833;28;20056;-64
2021/05/01 01:52:41;;;;;;;12.43;6.85;;;;;;;10.24;75.71;98910.91;5027929;28;20041;-64
2021/05/01 01:55:10;;;;;;;9.38;6.88;;;;;;;10.20;76.03;98911.91;5028082;28;20378;-65
2021/05/01 01:57:44;;;;;;;13.85;7.07;;;;;;;10.26;76.26;98939.06;5027757;28;20037;-70
2021/05/01 02:00:17;;;;;;;9.85;7.30;;;;;;;10.22;76.37;98937.44;4993869;28;20041;-66
2021/05/01 02:02:43;;;;;;;10.48;7.22;;;;;;;10.06;76.36;98922.06;5027943;28;20045;-64
2021/05/01 02:05:11;;;;;;;12.15;6.72;;;;;;;10.10;75.56;98939.59;5011299;28;20092;-64
2021/05/01 02:07:37;;;;;;;10.95;7.45;;;;;;;9.99;75.89;98939.03;5009680;28;20048;-64
2021/05/01 02:10:06;;;;;;;10.32;7.88;;;;;;;10.07;75.77;98950.28;5011169;28;20098;-64
2021/05/01 02:12:36;;;;;;;11.10;7.38;;;;;;;10.13;75.65;98968.66;5044317;28;20045;-65
2021/05/01 02:15:20;;;;;;;10.15;7.18;;;;;;;9.99;76.11;98969.03;5010945;28;20144;-64
2021/05/01 02:17:58;;;;;;;11.50;7.68;;;;;;;9.99;75.81;98962.84;5042777;28;20132;-64
2021/05/01 02:20:31;;;;;;;10.98;7.57;;;;;;;10.01;76.45;98975.13;5042175;28;20191;-65
2021/05/01 02:23:25;;;;;;;;;;;;;;;10.08;75.88;98979.38;5028875;28;20128;-64
2021/05/01 02:25:51;;;;;;;10.35;7.40;;;;;;;10.10;75.48;98968.72;5026373;28;19916;-66
2021/05/01 02:28:18;;;;;;;11.77;7.35;;;;;;;10.27;75.49;98992.91;5028469;28;20041;-65
2021/05/01 02:30:46;;;;;;;10.95;6.60;;;;;;;10.29;75.46;98994.63;5026598;28;20051;-65
2021/05/01 02:33:12;;;;;;;9.55;7.20;;;;;;;10.32;75.37;98983.06;5024819;28;20098;-64
2021/05/01 02:35:39;;;;;;;11.38;7.10;;;;;;;10.52;74.39;98996.53;5043389;28;20057;-65
2021/05/01 02:38:05;;;;;;;10.73;6.88;;;;;;;10.61;74.24;99010.38;5026744;28;20530;-64
2021/05/01 02:40:32;;;;;;;13.27;7.68;;;;;;;10.67;73.84;99006.63;5026302;28;20050;-72
2021/05/01 02:43:07;;;;;;;10.27;6.43;;;;;;;10.71;74.56;99014.44;4993279;28;20045;-65
2021/05/01 02:45:33;;;;;;;12.18;7.15;;;;;;;10.69;73.48;99016.28;5043030;28;20049;-66
2021/05/01 02:48:00;;;;;;;9.82;7.15;;;;;;;10.72;73.85;99020.63;5010392;28;20482;-69
2021/05/01 02:50:26;;;;;;;8.70;6.70;;;;;;;10.79;73.81;99030.97;5025120;28;20037;-68
2021/05/01 02:52:52;;;;;;;13.05;7.35;;;;;;;10.83;74.02;99029.06;5042905;28;20064;-64
2021/05/01 02:55:18;;;;;;;10.13;6.28;;;;;;;10.81;73.42;99025.63;5042715;28;20046;-67
2021/05/01 02:57:44;;;;;;;11.90;7.15;;;;;;;10.78;74.04;99036.31;5008108;28;20110;-66
2021/05/01 03:00:15;;;;;;;8.70;6.05;;;;;;;10.52;74.03;98994.75;5027832;28;20060;-65
2021/05/01 03:02:42;;;;;;;9.38;6.50;;;;;;;10.82;73.88;99037.94;5027836;28;20061;-66
2021/05/01 03:05:10;;;;;;;9.23;6.03;;;;;;;10.80;73.32;99035.34;5008509;28;20425;-70
2021/05/01 03:07:36;;;;;;;10.13;5.90;;;;;;;10.78;73.57;99042.50;5025627;28;20451;-64
2021/05/01 03:10:07;;;;;;;10.65;5.68;;;;;;;10.98;73.45;99057.75;5016301;28;20049;-66
2021/05/01 03:12:33;;;;;;;12.68;6.18;;;;;;;10.92;72.74;99061.47;5027659;28;20045;-64
2021/05/01 03:14:59;;;;;;;10.70;5.88;;;;;;;10.91;72.21;99064.19;5040658;28;20474;-64
2021/05/01 03:17:25;;;;;;;9.23;6.20;;;;;;;10.93;72.44;99071.19;5027705;28;20084;-65
2021/05/01 03:19:51;;;;;;;10.15;5.70;;;;;;;10.98;71.40;99077.19;5026583;28;20132;-65
2021/05/01 03:22:17;;;;;;;9.75;5.45;;;;;;;10.93;71.74;99073.84;5026510;28;20163;-68
2021/05/01 03:24:43;;;;;;;9.73;5.35;;;;;;;11.07;71.16;99068.94;5027093;28;20103;-67
2021/05/01 03:27:09;;;;;;;8.60;5.53;;;;;;;11.03;71.98;99074.41;5027487;28;20427;-65
2021/05/01 03:29:35;;;;;;;7.75;5.05;;;;;;;10.98;71.22;99081.63;5026149;28;20072;-64
2021/05/01 03:32:01;;;;;;;8.75;4.97;;;;;;;11.04;71.60;99076.97;5024320;28;20073;-65
2021/05/01 03:34:27;;;;;;;7.65;4.80;;;;;;;11.03;70.88;99080.56;5027718;28;20442;-64
2021/05/01 03:36:52;;;;;;;6.20;4.75;;;;;;;11.03;71.60;99071.75;5025730;28;20041;-64
2021/05/01 03:39:18;;;;;;;9.55;4.90;;;;;;;11.14;70.75;99082.84;5027013;28;20417;-70
2021/05/01 03:41:44;;;;;;;6.70;4.53;;;;;;;11.24;70.08;99095.75;5026215;28;20132;-64
2021/05/01 03:44:11;;;;;;;8.40;5.40;;;;;;;11.16;70.64;99096.94;5027632;28;20045;-64
2021/05/01 03:46:38;;;;;;;9.15;4.78;;;;;;;11.34;69.94;99109.59;5009451;28;20037;-64
2021/05/01 03:49:04;;;;;;;8.98;4.95;;;;;;;11.25;70.74;99113.44;5025799;28;20049;-66
2021/05/01 03:51:31;;;;;;;6.57;4.75;;;;;;;11.32;70.35;99111.44;5009625;28;20049;-64
2021/05/01 03:53:57;;;;;;;8.68;4.70;;;;;;;11.34;69.95;99125.50;5027040;28;20404;-64
2021/05/01 03:56:23;;;;;;;7.57;4.55;;;;;;;11.30;70.31;99131.84;5027116;28;20049;-64
2021/05/01 03:58:49;;;;;;;5.55;4.53;;;;;;;11.24;70.55;99140.03;5025087;28;20060;-65
2021/05/01 04:01:15;;;;;;;5.95;4.65;;;;;;;11.06;70.83;99138.81;5027288;28;20128;-65
2021/05/01 04:03:42;;;;;;;6.15;4.50;;;;;;;11.23;70.48;99140.94;5009257;28;20037;-64
2021/05/01 04:06:08;;;;;;;5.82;4.10;;;;;;;11.17;71.16;99152.63;5025162;28;20530;-71
2021/05/01 04:08:33;;;;;;;6.65;4.57;;;;;;;11.07;70.81;99137.91;5026708;28;20033;-66
2021/05/01 04:10:59;;;;;;;10.68;4.03;;;;;;;10.94;70.47;99125.06;5063396;28;20113;-64
2021/05/01 04:13:26;;;;;;;5.22;4.05;;;;;;;10.87;71.27;99132.34;5066618;28;20072;-66
2021/05/01 04:15:52;;;;;;;7.82;4.60;;;;;;;10.97;70.97;99155.03;5046767;28;20040;-65
2021/05/01 04:18:18;;;;;;;5.28;4.20;;;;;;;10.89;71.14;99153.53;5048874;28;20055;-64
2021/05/01 04:20:52;;;;;;;5.90;4.47;;;;;;;10.99;71.25;99163.81;5066658;28;20157;-64
2021/05/01 04:23:18;;;;;;;6.35;4.82;;;;;;;11.04;71.07;99145.94;5063746;28;20071;-65
2021/05/01 04:25:44;;;;;;;10.40;4.97;;;;;;;11.11;71.10;99149.31;5066984;28;20050;-64
2021/05/01 04:28:11;;;;;;;10.07;5.88;;;;;;;11.22;70.48;99160.41;5048570;28;20064;-65
2021/05/01 04:30:36;;;;;;;7.65;4.93;;;;;;;11.10;70.57;99161.69;5048455;28;20131;-66
2021/05/01 04:33:03;;;;;;;8.15;5.25;;;;;;;11.24;71.00;99167.41;5064647;28;20123;-66
2021/05/01 04:35:29;;;;;;;7.28;4.60;;;;;;;11.13;69.90;99150.09;5032051;28;20048;-66
2021/05/01 04:37:55;;;;;;;7.75;4.80;;;;;;;11.26;70.18;99143.47;5066190;28;20044;-65
2021/05/01 04:40:21;;;;;;;9.07;4.88;;;;;;;11.30;70.77;99148.66;5064507;28;20077;-72
2021/05/01 04:42:51;;;;;;;5.50;4.30;;;;;;;11.41;69.35;99151.81;5048604;28;20079;-64
2021/05/01 04:45:19;;;;;;;6.10;4.38;;;;;;;11.27;69.53;99166.47;5048505;28;20117;-65
2021/05/01 04:47:46;;;;;;;6.28;4.43;;;;;;;11.30;69.76;99175.19;5047750;28;20072;-70
2021/05/01 04:50:16;;;;;;;5.65;4.15;;;;;;;11.22;69.79;99157.75;5047746;28;20043;-65
2021/05/01 04:52:42;;;;;;;5.35;4.28;;;;;;;11.40;70.14;99181.91;5048267;28;20041;-65
2021/05/01 04:55:14;;;;;;;5.47;4.05;;;;;;;11.43;70.27;99186.28;5067907;28;20051;-65
2021/05/01 04:57:45;;;;;;;5.13;3.95;;;;;;;11.31;70.37;99189.34;5050959;28;20101;-65
2021/05/01 05:00:13;;;;;;;7.82;5.32;;;;;;;11.26;70.21;99185.94;5069932;28;20492;-66
2021/05/01 05:02:39;;;;;;;7.63;5.22;;;;;;;11.16;71.05;99188.00;5069454;28;20036;-66
2021/05/01 05:05:07;;;;;;;6.03;4.50;;;;;;;10.85;73.34;99184.59;5066500;28;20045;-65
2021/05/01 05:07:33;;;;;;;7.03;4.68;;;;;;;10.77;73.34;99178.66;5035429;28;20052;-65
2021/05/01 05:10:00;;;;;;;4.60;3.63;;;;;;;10.78;72.76;99190.13;5068898;28;20365;-67
2021/05/01 05:12:26;;;;;;;6.15;4.13;;;;;;;10.68;73.47;99201.94;5066475;28;20459;-69
2021/05/01 05:14:52;;;;;;;6.20;3.78;;;;;;;10.86;73.50;99210.19;5068617;28;20098;-64
2021/05/01 05:17:18;;;;;;;5.50;3.78;;;;;;;10.94;72.41;99197.56;5052093;28;20058;-67
2021/05/01 05:19:45;;;;;;;5.63;4.45;;;;;;;11.28;72.16;99219.47;5035005;28;20441;-64
2021/05/01 05:22:11;;;;;;;5.07;4.10;;;;;;;11.21;72.66;99222.38;5049429;28;20036;-66
2021/05/01 05:24:38;;;;;;;8.52;4.72;;;;;;;11.37;72.31;99220.97;5069849;28;20090;-66
2021/05/01 05:27:05;;;;;;;6.88;4.40;;;;;;;11.33;71.39;99229.94;5051836;28;20048;-66
2021/05/01 05:29:33;;;;;;;7.53;3.65;;;;;;;11.56;71.26;99228.31;5049879;28;20500;-66
2021/05/01 05:32:04;;;;;;;8.30;4.30;;;;;;;11.39;71.79;99237.75;5068563;28;20119;-64
2021/05/01 05:34:30;;;;;;;4.93;3.20;;;;;;;11.41;72.00;99262.44;5051666;28;20044;-64
2021/05/01 05:36:57;;;;;;;2.65;2.40;;;;;;;10.91;71.54;99271.91;5051292;28;20492;-69
2021/05/01 05:39:23;;;;;;;2.47;2.25;;;;;;;10.90;70.30;99287.88;5017409;28;20048;-65
2021/05/01 05:41:49;;;;;;;3.45;2.30;;;;;;;10.58;70.92;99270.25;5069433;28;20452;-65
2021/05/01 05:44:15;;;;;;;6.63;2.50;;;;;;;10.79;70.36;99285.53;5051424;28;20051;-65
2021/05/01 05:46:41;;;;;;;3.03;2.47;;;;;;;10.74;71.42;99294.53;5049075;28;20045;-66
2021/05/01 05:49:08;;;;;;;2.83;2.22;;;;;;;10.63;71.52;99309.88;5069163;28;20056;-65
2021/05/01 05:51:36;;;;;;;3.85;2.33;;;;;;;10.61;71.07;99314.34;5051322;28;20107;-65
2021/05/01 05:54:03;;;;;;;2.03;1.73;;;;;;;10.81;70.67;99319.97;5068711;28;20123;-71
2021/05/01 05:56:29;;;;;;;4.78;2.08;;;;;;;10.68;71.20;99324.75;5050905;28;20298;-65
2021/05/01 05:58:55;;;;;;;2.70;2.20;;;;;;;10.77;70.49;99328.94;5051107;28;20453;-66
2021/05/01 06:01:25;;;;;;;4.22;2.13;;;;;;;10.92;70.40;99315.25;5050906;28;20032;-66
2021/05/01 06:03:55;;;;;;;3.03;2.42;;;;;;;10.83;70.92;99332.28;5065663;28;20094;-66
2021/05/01 06:06:29;;;;;;;3.47;2.42;;;;;;;10.82;71.29;99327.88;5068854;28;20123;-67
2021/05/01 06:08:55;;;;;;;2.85;2.13;;;;;;;10.86;71.29;99348.09;5051074;28;20515;-68
2021/05/01 06:11:22;;;;;;;3.25;2.30;;;;;;;10.63;71.37;99354.94;5048755;28;20402;-66
2021/05/01 06:13:49;;;;;;;2.35;1.90;;;;;;;10.83;69.87;99353.50;5068636;28;20048;-66
2021/05/01 06:16:15;;;;;;;3.35;1.80;;;;;;;11.09;69.14;99334.19;5068476;28;20052;-65
2021/05/01 06:18:44;;;;;;;2.63;1.77;;;;;;;10.89;68.95;99365.72;5032341;28;20147;-76
2021/05/01 06:21:12;;;;;;;2.22;1.50;;;;;;;11.08;67.90;99367.81;5068524;28;20049;-64
2021/05/01 06:23:39;;;;;;;3.80;1.83;;;;;;;10.75;68.54;99383.78;5068390;28;20428;-66
2021/05/01 06:26:06;;;;;;;3.67;1.90;;;;;;;10.88;68.51;99377.25;5050245;28;20105;-65
2021/05/01 06:28:33;;;;;;;1.73;1.50;;;;;;;10.66;68.91;99365.47;5048539;28;20044;-64
2021/05/01 06:31:04;;;;;;;2.80;1.58;;;;;;;10.95;67.04;99384.13;5049911;28;20082;-65
2021/05/01 06:33:30;;;;;;;2.83;1.90;;;;;;;11.22;66.37;99392.19;5066930;28;20135;-64
2021/05/01 06:35:57;;;;;;;2.80;1.70;;;;;;;11.42;65.57;99396.88;5065883;28;20044;-64
2021/05/01 06:38:28;;;;;;;4.40;1.55;;;;;;;11.59;63.42;99384.84;5050375;28;20083;-63
2021/05/01 06:40:58;;;;;;;1.83;1.50;;;;;;;11.49;63.34;99401.13;5049812;28;20040;-64
2021/05/01 06:43:46;;;;;;;2.03;1.40;;;;;;;11.49;61.84;99406.44;5047755;28;20052;-64
2021/05/01 06:46:17;;;;;;;1.75;1.08;;;;;;;11.62;60.33;99411.38;5068031;28;20486;-64
2021/05/01 06:48:53;;;;;;;1.48;1.30;;;;;;;11.97;59.94;99412.94;5065887;28;20044;-64
2021/05/01 06:51:20;;;;;;;2.28;1.58;;;;;;;11.77;59.24;99424.19;5067685;28;20048;-65
2021/05/01 06:53:47;;;;;;;1.75;1.30;;;;;;;11.81;60.01;99423.19;5049636;28;20044;-65
2021/05/01 06:56:14;;;;;;;1.85;1.50;;;;;;;11.99;59.22;99427.91;5065488;28;20040;-65
2021/05/01 06:58:41;;;;;;;2.67;1.50;;;;;;;12.32;58.62;99432.19;5065880;28;20526;-65
2021/05/01 07:01:10;;;;;;;2.47;1.50;;;;;;;11.67;58.88;99419.19;5067496;28;20408;-65
2021/05/01 07:03:41;;;;;;;4.10;1.60;;;;;;;11.82;59.12;99446.16;5048114;28;20491;-72
2021/05/01 07:06:08;;;;;;;1.48;1.20;;;;;;;11.76;58.40;99440.16;5032441;28;20053;-66
2021/05/01 07:08:35;;;;;;;3.13;2.00;;;;;;;11.56;58.92;99434.53;5048996;28;20049;-65
2021/05/01 07:11:09;;;;;;;1.75;1.52;;;;;;;11.14;59.57;99435.75;5065898;28;20060;-74
2021/05/01 07:13:48;;;;;;;2.00;1.80;;;;;;;11.55;59.20;99446.09;5066011;28;20044;-67
2021/05/01 07:16:14;;;;;;;2.67;1.90;;;;;;;11.55;59.13;99452.25;5049865;28;20078;-65
2021/05/01 07:18:41;;;;;;;4.78;1.92;;;;;;;12.17;57.39;99458.34;5063390;28;20063;-68
2021/05/01 07:21:11;;;;;;;3.28;2.15;;;;;;;12.17;57.99;99469.88;5049833;28;20040;-66
2021/05/01 07:23:42;;;;;;;5.03;2.10;;;;;;;11.58;57.53;99467.22;5050133;28;20048;-72
2021/05/01 07:26:12;;;;;;;3.85;2.08;;;;;;;12.07;57.48;99473.72;5047334;28;20037;-75
2021/05/01 07:28:44;;;;;;;3.55;2.38;;;;;;;13.81;54.31;99478.34;5049329;28;20039;-76
2021/05/01 07:31:29;;;;;;;5.63;2.58;;;;;;;14.73;50.62;99489.84;5033129;28;20416;-65
2021/05/01 07:33:57;;;;;;;2.72;2.10;;;;;;;14.08;52.29;99486.22;5033157;28;20063;-68
2021/05/01 07:36:29;;;;;;;3.80;2.50;;;;;;;13.83;52.00;99499.59;5049401;28;20059;-67
2021/05/01 07:38:59;;;;;;;5.78;2.40;;;;;;;13.54;52.75;99490.00;5047340;28;20050;-66
2021/05/01 07:41:25;;;;;;;2.72;2.17;;;;;;;13.09;54.03;99501.41;5049357;28;20464;-67
2021/05/01 07:43:53;;;;;;;2.95;2.40;;;;;;;12.28;54.77;99474.84;5049041;28;20064;-68
2021/05/01 07:53:07;;;;;;;6.15;2.22;;;;;;;13.16;50.13;99525.13;5066535;28;20784;-67
2021/05/01 07:55:34;;;;;;;4.57;3.00;;;;;;;14.31;48.52;99524.44;5048425;28;20040;-68
2021/05/01 07:57:59;;;;;;;5.50;2.70;;;;;;;15.52;44.67;99490.88;5066855;28;20459;-67
2021/05/01 08:00:25;;;;;;;3.38;2.40;;;;;;;17.64;41.82;99529.56;5046402;28;20472;-67
2021/05/01 08:02:51;;;;;;;3.63;2.10;;;;;;;17.21;41.67;99517.47;5066369;28;20083;-66
2021/05/01 08:05:19;;;;;;;4.00;2.35;;;;;;;16.67;42.96;99524.69;5048564;28;20095;-67
2021/05/01 08:07:45;;;;;;;4.20;2.30;;;;;;;15.33;44.63;99512.16;5047267;28;20523;-67
2021/05/01 08:10:12;;;;;;;7.93;2.65;;;;;;;14.35;46.97;99531.38;5048028;28;20083;-68
2021/05/01 08:12:47;;;;;;;3.60;3.25;;;;;;;17.29;40.82;99515.25;5033311;28;20040;-68
2021/05/01 08:15:13;;;;;;;7.90;3.05;;;;;;;19.95;38.08;99547.59;5030709;28;20426;-70
2021/05/01 08:17:41;;;;;;;3.50;2.47;;;;;;;20.76;36.08;99555.88;5048519;28;20094;-65
2021/05/01 08:20:12;;;;;;;6.88;2.53;;;;;;;19.96;36.42;99542.13;5066461;28;20074;-67
2021/05/01 08:22:39;;;;;;;5.38;2.10;;;;;;;17.60;40.62;99547.63;5048250;28;20089;-69
2021/05/01 08:25:07;;;;;;;4.22;2.65;;;;;;;17.96;40.23;99569.84;5030490;28;20036;-66
2021/05/01 08:27:36;;;;;;;7.40;2.70;;;;;;;20.43;35.47;99568.81;5048373;28;20045;-66
2021/05/01 08:33:24;;;;;;;12.88;2.40;;;;;;;21.90;32.95;99575.16;5050815;28;20052;-68
2021/05/01 08:35:51;;;;;;;7.40;2.40;;;;;;;21.42;32.45;99565.84;5051163;28;20139;-67
2021/05/01 08:38:21;;;;;;;4.75;1.88;;;;;;;21.80;30.35;99568.66;5069885;28;20127;-66
2021/05/01 08:41:00;;;;;;;3.45;2.33;;;;;;;21.00;30.70;99555.19;5037529;28;20044;-68
2021/05/01 08:43:26;;;;;;;7.00;2.10;;;;;;;21.14;30.32;99562.38;5070269;28;20181;-68
2021/05/01 08:45:53;;;;;;;8.05;2.20;;;;;;;21.38;30.35;99566.13;5052202;28;20110;-66
2021/05/01 08:48:23;;;;;;;9.80;2.28;;;;;;;21.93;29.35;99575.81;5069395;28;20075;-69
2021/05/01 08:50:55;;;;;;;4.90;2.40;;;;;;;22.75;28.36;99578.97;5052030;28;20040;-69
2021/05/01 08:53:21;;;;;;;4.03;2.30;;;;;;;22.64;29.49;99568.06;5069966;28;20059;-68
2021/05/01 08:55:47;;;;;;;8.70;2.53;;;;;;;24.73;27.11;99568.94;5068270;28;20140;-68
2021/05/01 08:58:14;;;;;;;4.07;2.67;;;;;;;23.37;27.36;99571.66;5050771;28;20040;-68
2021/05/01 09:00:44;;;;;;;7.60;2.20;;;;;;;23.62;27.86;99583.19;5051966;28;20044;-67
2021/05/01 09:03:13;;;;;;;6.45;2.20;;;;;;;25.07;26.00;99583.34;5052458;28;20128;-65
2021/05/01 09:05:41;;;;;;;5.07;2.28;;;;;;;24.77;26.17;99581.28;5033174;28;20044;-67
2021/05/01 09:08:09;;;;;;;9.32;2.38;;;;;;;24.19;26.46;99576.03;5064948;28;20057;-67
2021/05/01 09:10:42;;;;;;;8.05;2.25;;;;;;;24.67;26.00;99592.97;5031445;28;20141;-67
2021/05/01 09:13:12;;;;;;;8.93;2.30;;;;;;;26.20;24.83;99600.88;5013034;28;20049;-68
2021/05/01 09:15:41;;;;;;;6.63;2.20;;;;;;;26.48;24.37;99584.75;4998660;28;20079;-67
2021/05/01 09:18:09;;;;;;;6.20;2.13;;;;;;;28.83;22.98;99612.66;5025213;28;20080;-69
2021/05/01 09:20:35;;;;;;;5.93;2.25;;;;;;;29.20;22.39;99605.34;5011315;28;20044;-65
2021/05/01 09:23:06;;;;;;;4.05;2.30;;;;;;;28.37;22.36;99591.66;5030193;28;20102;-67
2021/05/01 09:25:54;;;;;;;4.10;2.22;;;;;;;27.10;23.68;99600.97;5031502;28;20091;-68
2021/05/01 09:28:22;;;;;;;3.83;2.38;;;;;;;28.84;22.14;99609.78;5029869;28;20049;-67
2021/05/01 09:31:08;;;;;;;7.88;2.80;;;;;;;27.31;22.61;99591.75;5047552;28;20040;-67
2021/05/01 09:33:40;;;;;;;8.23;2.05;;;;;;;26.49;23.83;99610.13;5028971;28;20075;-66
2021/05/01 09:36:15;;;;;;;11.82;2.17;;;;;;;26.80;23.48;99618.19;5013526;28;20519;-68
2021/05/01 09:38:51;;;;;;;6.95;2.55;;;;;;;27.37;22.83;99628.47;5044556;28;20488;-70
2021/05/01 09:41:25;;;;;;;4.45;2.05;;;;;;;28.33;21.67;99624.81;5013338;28;20063;-67
2021/05/01 09:43:56;;;;;;;5.30;2.00;;;;;;;26.41;22.77;99620.81;5040119;28;20040;-68
2021/05/01 09:46:22;;;;;;;7.72;2.25;;;;;;;27.42;22.59;99628.91;5065650;28;20123;-69
2021/05/01 09:49:11;;;;;;;5.88;1.95;;;;;;;26.92;22.09;99635.28;5034055;28;20045;-68
2021/05/01 09:51:54;;;;;;;6.18;2.20;;;;;;;26.07;22.96;99630.13;5048989;28;20520;-68
2021/05/01 09:54:25;;;;;;;9.30;1.77;;;;;;;27.02;22.37;99623.47;5034161;28;20590;-67
2021/05/01 09:56:51;;;;;;;4.40;1.83;;;;;;;27.35;22.14;99646.78;5065749;28;20110;-68
2021/05/01 09:59:43;;;;;;;3.67;1.88;;;;;;;26.33;21.74;99639.66;5035431;28;20262;-68
2021/05/01 10:02:12;;;;;;;2.67;1.90;;;;;;;26.56;21.96;99631.19;5016278;28;20037;-69
2021/05/01 10:04:38;;;;;;;7.07;2.40;;;;;;;27.24;21.67;99627.84;5068645;28;20118;-67
2021/05/01 10:07:07;;;;;;;9.60;2.33;;;;;;;28.35;21.21;99648.22;5033960;28;20045;-66
2021/05/01 10:09:39;;;;;;;6.13;2.03;;;;;;;27.05;22.05;99646.81;5030400;28;20483;-71
2021/05/01 10:12:08;;;;;;;;;;;;;;;26.72;22.14;99650.66;5047279;28;20104;-63
2021/05/01 10:14:36;;;;;;;14.57;2.30;;;;;;;27.04;22.18;99645.06;5030913;28;20246;-72
2021/05/01 10:17:02;;;;;;;4.82;2.25;;;;;;;25.81;22.43;99654.03;5047179;28;20049;-64
2021/05/01 10:19:46;;;;;;;4.85;2.17;;;;;;;25.53;22.73;99660.06;5029256;28;20096;-65
2021/05/01 10:22:42;;;;;;;6.65;1.88;;;;;;;27.33;22.40;99674.16;5047561;28;20135;-63
2021/05/01 10:25:32;;;;;;;7.88;1.90;;;;;;;28.79;20.90;99674.00;5048408;28;20096;-64
2021/05/01 10:28:09;;;;;;;4.60;1.75;;;;;;;26.99;20.69;99671.84;5028683;28;20037;-65
2021/05/01 10:30:42;;;;;;;8.07;1.70;;;;;;;26.57;21.02;99671.00;5046818;28;20041;-65
2021/05/01 10:33:29;;;;;;;2.80;1.80;;;;;;;26.88;21.47;99670.06;5046735;28;20048;-66
2021/05/01 10:36:20;;;;;;;3.55;1.67;;;;;;;26.30;22.34;99670.66;5048113;28;20455;-62
2021/05/01 10:38:58;;;;;;;3.50;1.90;;;;;;;25.52;22.78;99664.59;5047256;28;20049;-65
2021/05/01 10:41:32;;;;;;;;;;;;;;;25.23;22.32;99654.38;5046917;28;20041;-67
2021/05/01 10:46:27;;;;;;;6.93;2.40;;;;;;;26.98;21.04;99678.28;5047840;28;20171;-66
2021/05/01 10:49:05;;;;;;;10.60;1.98;;;;;;;27.84;20.59;99683.09;5046483;28;20389;-67
2021/05/01 10:54:26;;;;;;;4.55;1.73;;;;;;;30.42;19.07;99688.59;5047733;28;20044;-69
2021/05/01 10:56:56;;;;;;;5.10;1.70;;;;;;;28.27;19.97;99689.00;5044396;28;20048;-66
2021/05/01 11:01:57;;;;;;;17.92;2.33;;;;;;;26.79;21.06;99683.63;5046238;28;20036;-70
2021/05/01 11:04:29;;;;;;;3.45;1.58;;;;;;;26.32;21.10;99681.41;5026690;28;20497;-71
2021/05/01 11:07:16;;;;;;;3.47;1.90;;;;;;;26.92;20.70;99692.44;5044525;28;20095;-76
2021/05/01 11:09:46;;;;;;;6.78;1.85;;;;;;;27.52;20.36;99690.56;5048590;28;20064;-76
2021/05/01 11:12:23;;;;;;;5.57;1.80;;;;;;;28.46;19.58;99694.50;5048151;28;20519;-66
2021/05/01 11:15:02;;;;;;;6.30;1.73;;;;;;;27.95;20.07;99695.72;5048292;28;20071;-74
2021/05/01 11:17:51;;;;;;;6.18;1.77;;;;;;;28.82;19.52;99695.56;5065233;28;20070;-75
2021/05/01 11:20:28;;;;;;;3.47;1.70;;;;;;;27.02;20.37;99696.06;5046117;28;20135;-74
2021/05/01 11:22:54;;;;;;;3.22;1.70;;;;;;;24.62;21.53;99663.88;5036714;28;20048;-73
2021/05/01 11:25:22;;;;;;;9.32;1.70;;;;;;;24.11;22.23;99689.56;5050534;28;20404;-71
2021/05/01 11:27:56;;;;;;;6.43;1.65;;;;;;;23.80;22.36;99703.66;5156562;22;20062;-72
2021/05/01 11:30:28;;;;;;;6.03;1.52;;;;;;;25.50;20.99;99690.16;4993001;28;20515;-71
2021/05/01 11:32:55;;;;;;;5.28;1.30;;;;;;;25.62;21.77;99684.59;5008075;28;20041;-72
2021/05/01 11:35:26;;;;;;;5.50;2.35;;;;;;;25.39;22.17;99691.06;5006204;28;20046;-73
2021/05/01 11:37:57;;;;;;;5.93;2.15;;;;;;;23.94;21.53;99697.25;4991846;28;20059;-69
2021/05/01 11:40:26;;;;;;;8.55;3.13;;;;;;;20.97;23.59;99682.09;5000396;28;20053;-77
2021/05/01 11:42:54;;;;;;;7.45;2.20;;;;;;;20.96;24.29;99677.69;4988479;28;20046;-80
2021/05/01 11:45:39;;;;;;;7.25;1.67;;;;;;;21.29;24.34;99688.13;4970526;28;20511;-79
2021/05/01 11:48:07;;;;;;;6.57;1.73;;;;;;;22.13;24.13;99668.06;4984242;28;20481;-81
2021/05/01 11:50:35;;;;;;;6.82;1.67;;;;;;;21.06;24.40;99689.63;4988979;28;20034;-80
2021/05/01 11:53:33;;;;;;;5.47;1.70;;;;;;;20.99;24.25;99676.59;5022091;28;20049;-80
2021/05/01 11:56:43;;;;;;;6.15;1.85;;;;;;;20.80;24.33;99700.25;5005476;28;20127;-80
2021/05/01 11:59:11;;;;;;;4.47;1.90;;;;;;;21.69;23.94;99719.66;4896163;29;20103;-80
2021/05/01 12:01:58;;;;;;;3.75;1.52;;;;;;;21.36;24.41;99692.19;4895923;29;20173;-82
2021/05/01 12:04:40;;;;;;;8.32;2.65;;;;;;;20.46;24.38;99692.53;4895542;29;20066;-78
2021/05/01 12:07:07;;;;;;;6.28;1.75;;;;;;;20.32;24.54;99692.50;4914529;29;20047;-76
2021/05/01 12:09:40;;;;;;;6.28;1.55;;;;;;;20.36;24.39;99710.22;4926649;29;20071;-77
2021/05/01 12:12:09;;;;;;;3.65;1.60;;;;;;;19.50;25.08;99704.53;4897269;29;20040;-74
2021/05/01 12:14:35;;;;;;;4.15;1.70;;;;;;;19.60;25.25;99710.28;4912284;29;20496;-79
2021/05/01 12:17:12;;;;;;;4.20;1.75;;;;;;;19.68;24.20;99695.44;4924801;29;20122;-74
2021/05/01 12:19:45;;;;;;;3.83;1.90;;;;;;;19.83;24.22;99712.50;4911060;29;20046;-70
2021/05/01 12:22:23;;;;;;;6.75;2.08;;;;;;;19.53;24.81;99701.69;4910039;29;20055;-68
2021/05/01 12:24:49;;;;;;;5.50;2.10;;;;;;;19.03;25.42;99692.03;4910148;29;20189;-78
2021/05/01 12:27:51;;;;;;;4.00;2.00;;;;;;;19.37;25.49;99716.97;4910930;29;20364;-77
2021/05/01 12:30:43;;;;;;;5.83;2.10;;;;;;;19.95;25.15;99722.56;4911371;29;20059;-76
2021/05/01 12:33:29;;;;;;;2.00;1.50;;;;;;;19.84;24.79;99719.63;4910412;29;20046;-79